createdAt,value
2023-04-27T00:01:01.814Z,40.10
2023-04-27T00:03:30.489Z,38.80
2023-04-27T00:05:59.997Z,37.50
2023-04-27T00:08:28.384Z,36.80
2023-04-27T00:10:57.989Z,36.60
2023-04-27T00:13:27.079Z,35.80
2023-04-27T00:15:57.681Z,35.50
2023-04-27T00:18:29.234Z,35.80
2023-04-27T00:20:57.911Z,36.20
2023-04-27T00:23:27.000Z,35.70
2023-04-27T00:25:55.407Z,34.60
2023-04-27T00:28:23.791Z,34.40
2023-04-27T00:30:54.408Z,34.40
2023-04-27T00:33:24.227Z,34.60
2023-04-27T00:35:52.876Z,34.30
2023-04-27T00:38:22.620Z,34.30
2023-04-27T00:40:50.932Z,34.30
2023-04-27T00:43:19.285Z,34.60
2023-04-27T00:45:48.140Z,36.00
2023-04-27T00:48:16.559Z,38.00
2023-04-27T00:50:46.312Z,37.80
2023-04-27T00:53:15.463Z,37.00
2023-04-27T00:55:44.176Z,36.10
2023-04-27T00:58:12.768Z,35.90
2023-04-27T01:00:43.074Z,36.80
2023-04-27T01:03:12.970Z,37.50
2023-04-27T01:05:42.786Z,37.10
2023-04-27T01:08:13.106Z,36.90
2023-04-27T01:10:42.183Z,36.00
2023-04-27T01:13:12.067Z,36.60
2023-04-27T01:15:40.418Z,39.10
2023-04-27T01:18:11.337Z,44.80
2023-04-27T01:20:39.781Z,43.60
2023-04-27T01:23:17.087Z,41.50
2023-04-27T01:25:46.294Z,40.10
2023-04-27T01:28:14.820Z,39.10
2023-04-27T01:30:43.314Z,42.80
2023-04-27T01:33:12.110Z,43.50
2023-04-27T01:35:42.069Z,40.60
2023-04-27T01:38:11.088Z,39.90
2023-04-27T01:40:42.285Z,39.10
2023-04-27T01:43:10.785Z,38.40
2023-04-27T01:45:39.521Z,37.90
2023-04-27T01:48:08.107Z,38.00
2023-04-27T01:50:37.125Z,39.00
2023-04-27T01:53:06.424Z,39.00
2023-04-27T01:55:34.815Z,38.30
2023-04-27T01:58:05.550Z,37.70
2023-04-27T02:00:34.941Z,37.40
2023-04-27T02:03:03.825Z,36.20
2023-04-27T02:05:32.710Z,36.70
2023-04-27T02:10:47.397Z,35.00
2023-04-27T02:13:17.257Z,34.20
2023-04-27T02:15:46.442Z,33.40
2023-04-27T02:18:20.228Z,33.30
2023-04-27T02:20:49.708Z,33.10
2023-04-27T02:23:18.194Z,33.30
2023-04-27T02:37:38.405Z,31.90
2023-04-27T02:49:24.038Z,34.00
2023-04-27T02:53:06.030Z,33.60
2023-04-27T03:12:54.399Z,32.90
2023-04-27T03:19:44.329Z,33.00
2023-04-27T03:22:14.846Z,32.30
2023-04-27T03:24:43.993Z,32.80
2023-04-27T03:27:12.842Z,33.00
2023-04-27T03:29:41.269Z,32.50
2023-04-27T03:33:05.009Z,33.50
2023-04-27T03:36:32.212Z,33.30
2023-04-27T03:39:57.314Z,32.80
2023-04-27T03:43:03.517Z,32.50
2023-04-27T03:46:09.695Z,32.00
2023-04-27T03:49:15.685Z,32.40
2023-04-27T03:52:20.622Z,32.80
2023-04-27T03:55:28.387Z,33.10
2023-04-27T03:58:33.075Z,33.40
2023-04-27T04:01:53.724Z,32.70
2023-04-27T04:04:58.943Z,32.90
2023-04-27T04:08:06.371Z,32.90
2023-04-27T04:11:14.089Z,33.50
2023-04-27T04:14:20.190Z,32.70
2023-04-27T04:17:24.843Z,33.20
2023-04-27T04:20:47.912Z,33.40
2023-04-27T04:24:11.021Z,33.10
2023-04-27T04:27:18.068Z,33.50
2023-04-27T04:30:23.262Z,33.40
2023-04-27T04:33:12.215Z,33.30
2023-04-27T04:36:16.707Z,33.40
2023-04-27T04:39:21.594Z,33.40
2023-04-27T04:42:44.647Z,33.40
2023-04-27T04:45:51.865Z,32.80
2023-04-27T04:48:56.782Z,32.40
2023-04-27T04:52:01.444Z,32.30
2023-04-27T04:54:29.721Z,32.00
2023-04-27T04:57:17.057Z,33.30
2023-04-27T04:59:45.548Z,32.00
2023-04-27T05:02:34.446Z,32.50
2023-04-27T05:05:22.372Z,33.40
2023-04-27T05:08:30.137Z,33.40
2023-04-27T05:11:34.646Z,32.90
2023-04-27T05:14:40.415Z,32.50
2023-04-27T05:17:28.458Z,33.40
2023-04-27T05:20:34.177Z,32.70
2023-04-27T05:23:42.121Z,32.40
2023-04-27T05:27:05.269Z,33.60
2023-04-27T05:29:51.527Z,33.60
2023-04-27T05:32:39.688Z,33.60
2023-04-27T05:35:44.006Z,33.60
2023-04-27T05:38:33.860Z,32.10
2023-04-27T05:41:02.696Z,33.10
2023-04-27T05:43:49.764Z,34.40
2023-04-27T05:46:38.669Z,34.30
2023-04-27T05:49:43.708Z,33.60
2023-04-27T05:52:31.371Z,33.70
2023-04-27T05:55:55.718Z,32.50
2023-04-27T05:58:44.107Z,33.70
2023-04-27T06:01:14.056Z,33.40
2023-04-27T06:04:02.157Z,33.60
2023-04-27T06:07:27.375Z,33.60
2023-04-27T06:10:32.263Z,33.60
2023-04-27T06:13:39.342Z,33.50
2023-04-27T06:16:45.233Z,33.70
2023-04-27T06:19:49.987Z,32.90
2023-04-27T06:22:54.677Z,32.20
2023-04-27T06:25:59.340Z,31.50
2023-04-27T06:28:45.048Z,32.80
2023-04-27T06:31:15.406Z,33.80
2023-04-27T06:34:21.188Z,33.70
2023-04-27T06:37:44.378Z,33.50
2023-04-27T06:41:08.121Z,32.60
2023-04-27T06:44:14.787Z,31.50
2023-04-27T06:47:56.959Z,30.60
2023-04-27T06:51:39.425Z,31.10
2023-04-27T06:54:47.052Z,31.70
2023-04-27T06:58:29.035Z,31.10
2023-04-27T07:02:12.388Z,32.30
2023-04-27T07:04:40.935Z,32.00
2023-04-27T07:07:27.968Z,31.60
2023-04-27T07:10:33.916Z,32.70
2023-04-27T07:13:57.167Z,31.80
2023-04-27T07:17:03.812Z,30.10
2023-04-27T07:20:09.205Z,29.80
2023-04-27T07:22:55.941Z,29.70
2023-04-27T07:25:26.560Z,30.00
2023-04-27T07:28:50.039Z,29.90
2023-04-27T07:32:13.997Z,29.80
2023-04-27T07:35:56.898Z,30.90
2023-04-27T07:38:44.494Z,30.70
2023-04-27T07:41:50.903Z,31.00
2023-04-27T07:45:15.033Z,31.00
2023-04-27T07:47:44.172Z,30.80
2023-04-27T07:50:33.134Z,30.40
2023-04-27T07:53:20.918Z,29.90
2023-04-27T07:56:25.567Z,29.10
2023-04-27T07:59:31.717Z,28.50
2023-04-27T08:02:37.990Z,30.00
2023-04-27T08:06:02.233Z,29.10
2023-04-27T08:09:06.942Z,28.30
2023-04-27T08:12:29.857Z,29.60
2023-04-27T08:16:12.088Z,27.90
2023-04-27T08:19:17.882Z,28.90
2023-04-27T08:21:48.153Z,28.10
2023-04-27T08:25:29.796Z,27.70
2023-04-27T08:28:35.999Z,26.60
2023-04-27T08:31:59.861Z,26.70
2023-04-27T08:35:23.981Z,28.00
2023-04-27T08:38:30.106Z,27.10
2023-04-27T08:41:56.388Z,27.50
2023-04-27T08:44:43.226Z,25.90
2023-04-27T08:47:47.958Z,26.80
2023-04-27T08:51:29.706Z,25.70
2023-04-27T08:54:35.878Z,25.00
2023-04-27T08:57:40.961Z,25.80
2023-04-27T09:00:27.968Z,25.10
2023-04-27T09:03:24.404Z,25.10
2023-04-27T09:07:06.952Z,23.80
2023-04-27T09:10:03.844Z,24.70
2023-04-27T09:13:14.771Z,24.30
2023-04-27T09:16:20.554Z,23.90
2023-04-27T09:19:45.812Z,24.50
2023-04-27T09:23:10.667Z,24.20
2023-04-27T09:26:16.526Z,23.60
2023-04-27T09:29:23.757Z,24.70
2023-04-27T09:32:36.098Z,25.70
2023-04-27T09:35:24.583Z,21.70
2023-04-27T09:38:31.789Z,24.30
2023-04-27T09:41:20.304Z,23.20
2023-04-27T09:44:26.244Z,23.40
2023-04-27T09:47:51.798Z,23.20
2023-04-27T09:50:57.785Z,24.60
2023-04-27T09:53:46.431Z,24.60
2023-04-27T09:56:44.850Z,24.30
2023-04-27T10:00:27.037Z,22.60
2023-04-27T10:03:59.344Z,23.80
2023-04-27T10:07:38.006Z,22.40
2023-04-27T10:10:27.673Z,23.70
2023-04-27T10:13:52.357Z,21.70
2023-04-27T10:17:36.143Z,21.50
2023-04-27T10:21:18.380Z,22.70
2023-04-27T10:24:44.217Z,22.50
2023-04-27T10:27:40.127Z,22.10
2023-04-27T10:31:06.991Z,21.60
2023-04-27T10:34:32.144Z,23.30
2023-04-27T10:37:24.707Z,20.40
2023-04-27T10:40:31.056Z,22.40
2023-04-27T10:43:57.878Z,20.60
2023-04-27T10:46:51.721Z,22.10
2023-04-27T10:49:20.486Z,19.70
2023-04-27T10:53:03.090Z,20.90
2023-04-27T10:55:55.804Z,19.40
2023-04-27T10:58:48.760Z,19.10
2023-04-27T11:02:13.112Z,19.80
2023-04-27T11:05:37.834Z,20.90
2023-04-27T11:08:42.814Z,22.00
2023-04-27T11:12:06.099Z,20.90
2023-04-27T11:15:48.234Z,20.20
2023-04-27T11:18:37.054Z,21.60
2023-04-27T11:21:28.869Z,21.90
2023-04-27T11:24:15.610Z,19.80
2023-04-27T11:27:20.416Z,19.10
2023-04-27T11:29:49.119Z,21.50
2023-04-27T11:32:36.661Z,21.20
2023-04-27T11:35:43.709Z,20.50
2023-04-27T11:39:09.826Z,19.80
2023-04-27T11:41:40.104Z,18.80
2023-04-27T11:44:30.692Z,18.10
2023-04-27T11:47:19.256Z,18.40
2023-04-27T11:51:01.789Z,20.90
2023-04-27T11:54:11.704Z,19.00
2023-04-27T11:57:36.109Z,18.70
2023-04-27T12:01:30.877Z,20.10
2023-04-27T12:04:43.188Z,16.30
2023-04-27T12:07:50.445Z,17.40
2023-04-27T12:11:15.254Z,17.20
2023-04-27T12:14:22.774Z,18.40
2023-04-27T12:18:05.219Z,18.50
2023-04-27T12:21:09.845Z,16.60
2023-04-27T12:24:14.885Z,17.20
2023-04-27T12:27:21.936Z,15.20
2023-04-27T12:30:45.806Z,20.10
2023-04-27T12:34:10.216Z,17.40
2023-04-27T12:37:33.661Z,17.50
2023-04-27T12:40:38.956Z,15.50
2023-04-27T12:43:27.525Z,16.00
2023-04-27T12:46:14.897Z,16.00
2023-04-27T12:49:02.944Z,16.60
2023-04-27T12:52:27.206Z,17.40
2023-04-27T12:55:34.440Z,16.70
2023-04-27T12:58:59.421Z,16.90
2023-04-27T13:02:05.505Z,16.70
2023-04-27T13:04:34.212Z,16.80
2023-04-27T13:07:39.931Z,15.30
2023-04-27T13:10:44.668Z,15.20
2023-04-27T13:14:07.919Z,15.00
2023-04-27T13:16:56.157Z,15.70
2023-04-27T13:20:20.384Z,15.10
2023-04-27T13:23:07.572Z,15.50
2023-04-27T13:26:12.961Z,15.10
2023-04-27T13:29:37.174Z,16.50
2023-04-27T13:32:42.282Z,17.20
2023-04-27T13:35:29.385Z,16.20
2023-04-27T13:38:54.835Z,17.40
2023-04-27T13:42:00.037Z,14.10
2023-04-27T13:45:05.880Z,14.80
2023-04-27T13:48:10.282Z,14.50
2023-04-27T13:51:16.348Z,16.30
2023-04-27T13:54:05.074Z,14.00
2023-04-27T13:57:09.836Z,16.10
2023-04-27T13:59:57.205Z,13.80
2023-04-27T14:03:20.244Z,13.70
2023-04-27T14:06:43.859Z,15.80
2023-04-27T14:09:14.367Z,16.50
2023-04-27T14:12:19.590Z,15.20
2023-04-27T14:15:07.288Z,16.30
2023-04-27T14:18:32.774Z,15.10
2023-04-27T14:21:56.881Z,13.90
2023-04-27T14:25:02.811Z,15.40
2023-04-27T14:28:27.481Z,14.10
2023-04-27T14:31:14.442Z,14.20
2023-04-27T14:34:00.197Z,15.70
2023-04-27T14:37:05.280Z,15.60
2023-04-27T14:40:29.944Z,15.70
2023-04-27T14:43:17.881Z,14.60
2023-04-27T14:46:23.045Z,15.40
2023-04-27T14:49:29.701Z,15.90
2023-04-27T14:52:16.572Z,14.80
2023-04-27T14:55:24.742Z,14.60
2023-04-27T14:58:29.355Z,16.00
2023-04-27T15:01:52.545Z,16.10
2023-04-27T15:04:41.551Z,14.20
2023-04-27T15:08:06.792Z,15.90
2023-04-27T15:11:14.677Z,15.60
2023-04-27T15:14:19.252Z,14.30
2023-04-27T15:17:42.914Z,17.00
2023-04-27T15:20:48.465Z,14.50
2023-04-27T15:24:12.537Z,16.90
2023-04-27T15:27:54.816Z,16.50
2023-04-27T15:31:01.662Z,17.40
2023-04-27T15:33:47.722Z,17.20
2023-04-27T15:36:56.331Z,15.70
2023-04-27T15:39:43.456Z,14.80
2023-04-27T15:42:30.534Z,16.90
2023-04-27T15:45:35.192Z,17.00
2023-04-27T15:48:42.872Z,17.10
2023-04-27T15:51:49.207Z,16.60
2023-04-27T15:54:53.718Z,15.50
2023-04-27T15:57:22.174Z,15.60
2023-04-27T16:00:28.859Z,16.40
2023-04-27T16:03:52.399Z,16.70
2023-04-27T16:07:17.863Z,16.90
2023-04-27T16:10:41.958Z,16.40
2023-04-27T16:14:05.470Z,16.80
2023-04-27T16:17:47.796Z,16.80
2023-04-27T16:21:11.428Z,16.50
2023-04-27T16:23:41.374Z,15.50
2023-04-27T16:26:09.831Z,18.40
2023-04-27T16:28:57.614Z,17.60
2023-04-27T16:31:44.930Z,17.20
2023-04-27T16:34:50.622Z,17.80
2023-04-27T16:37:56.213Z,17.10
2023-04-27T16:41:01.900Z,19.30
2023-04-27T16:44:08.688Z,17.70
2023-04-27T16:47:33.896Z,16.90
2023-04-27T16:50:38.407Z,18.90
2023-04-27T16:54:01.304Z,18.70
2023-04-27T16:57:06.030Z,17.90
2023-04-27T17:00:30.316Z,18.40
2023-04-27T17:03:36.732Z,18.90
2023-04-27T17:06:43.852Z,19.50
2023-04-27T17:09:31.127Z,20.90
2023-04-27T17:12:18.246Z,20.30
2023-04-27T17:15:25.923Z,20.80
2023-04-27T17:18:33.918Z,21.50
2023-04-27T17:21:39.622Z,20.90
2023-04-27T17:24:46.723Z,21.20
2023-04-27T17:28:29.333Z,20.40
2023-04-27T17:31:34.925Z,23.40
2023-04-27T17:34:21.605Z,19.90
2023-04-27T17:37:44.683Z,22.50
2023-04-27T17:40:32.926Z,24.80
2023-04-27T17:43:37.735Z,24.20
2023-04-27T17:47:02.530Z,24.90
2023-04-27T17:50:08.521Z,24.00
2023-04-27T17:52:36.923Z,24.40
2023-04-27T17:55:25.563Z,27.70
2023-04-27T17:58:14.073Z,28.00
2023-04-27T18:01:20.259Z,28.70
2023-04-27T18:04:05.909Z,29.70
2023-04-27T18:06:53.384Z,30.10
2023-04-27T18:10:35.241Z,29.80
2023-04-27T18:13:41.354Z,30.00
2023-04-27T18:17:04.830Z,29.50
2023-04-27T18:20:29.278Z,28.80
2023-04-27T18:23:33.778Z,29.80
2023-04-27T18:26:38.566Z,28.20
2023-04-27T18:29:44.114Z,27.60
2023-04-27T18:33:08.729Z,27.60
2023-04-27T18:36:52.085Z,27.60
2023-04-27T18:40:15.875Z,27.70
2023-04-27T18:42:44.241Z,26.20
2023-04-27T18:46:08.666Z,26.80
2023-04-27T18:49:50.879Z,27.50
2023-04-27T18:52:19.250Z,26.80
2023-04-27T18:55:07.350Z,26.70
2023-04-27T18:58:13.302Z,27.00
2023-04-27T19:01:21.181Z,29.00
2023-04-27T19:05:12.256Z,30.80
2023-04-27T19:07:58.856Z,32.20
2023-04-27T19:11:03.983Z,32.50
2023-04-27T19:14:10.879Z,31.90
2023-04-27T19:17:17.163Z,32.10
2023-04-27T19:20:05.841Z,33.70
2023-04-27T19:22:52.737Z,32.10
2023-04-27T19:26:06.048Z,31.50
2023-04-27T19:28:59.158Z,30.30
2023-04-27T19:32:22.940Z,28.20
2023-04-27T19:34:53.021Z,26.90
2023-04-27T19:37:58.412Z,26.70
2023-04-27T19:41:05.934Z,27.50
2023-04-27T19:44:30.294Z,27.00
2023-04-27T19:47:35.869Z,27.20
2023-04-27T19:50:09.275Z,27.80
2023-04-27T19:53:51.854Z,28.20
2023-04-27T20:05:34.471Z,27.80
2023-04-27T20:09:37.592Z,29.30
2023-04-27T20:13:41.197Z,28.40
2023-04-27T20:17:24.755Z,28.10
2023-04-27T20:21:10.856Z,28.90
2023-04-27T20:24:54.296Z,27.50
2023-04-27T20:35:46.751Z,27.80
2023-04-27T20:38:15.332Z,27.70
2023-04-27T20:40:44.687Z,29.60
2023-04-27T20:43:13.531Z,30.10
2023-04-27T20:45:43.176Z,31.40
2023-04-27T20:48:12.025Z,31.60
2023-04-27T20:50:40.691Z,31.70
2023-04-27T20:53:12.860Z,30.70
2023-04-27T20:55:41.820Z,30.40
2023-04-27T20:58:11.560Z,28.20
2023-04-27T21:00:40.083Z,32.10
2023-04-27T21:03:08.648Z,30.40
2023-04-27T21:05:37.383Z,29.40
2023-04-27T21:08:06.460Z,30.10
2023-04-27T21:10:36.763Z,30.00
2023-04-27T21:13:24.512Z,30.00
2023-04-27T21:16:13.734Z,30.00
2023-04-27T21:19:00.551Z,30.20
2023-04-27T21:21:47.873Z,31.30
2023-04-27T21:24:35.057Z,31.20
2023-04-27T21:27:25.176Z,28.70
2023-04-27T21:30:12.934Z,30.10
2023-04-27T21:33:00.694Z,32.30
2023-04-27T21:35:47.825Z,34.30
2023-04-27T21:38:35.533Z,34.90
2023-04-27T21:41:24.386Z,34.90
2023-04-27T21:44:19.782Z,32.50
2023-04-27T21:47:06.937Z,34.20
2023-04-27T21:49:53.970Z,33.40
2023-04-27T21:52:41.010Z,34.30
2023-04-27T21:55:29.012Z,36.00
2023-04-27T21:59:11.287Z,33.80
2023-04-27T22:14:54.052Z,35.30
2023-04-27T22:22:37.272Z,33.80
2023-04-27T22:26:19.265Z,36.90
2023-04-27T22:34:01.471Z,35.60
2023-04-27T22:41:45.901Z,37.70
2023-04-27T22:45:28.521Z,37.50
2023-04-27T22:49:11.327Z,36.60
2023-04-27T22:56:53.184Z,33.20
2023-04-27T23:04:35.440Z,33.00
2023-04-27T23:08:17.668Z,32.70
2023-04-27T23:11:59.843Z,34.00
2023-04-27T23:19:42.641Z,31.80
2023-04-27T23:23:26.352Z,34.50
2023-04-27T23:31:09.508Z,34.80
2023-04-27T23:34:52.932Z,35.20
2023-04-27T23:42:38.588Z,37.40
2023-04-27T23:46:21.499Z,37.30
2023-04-27T23:50:06.078Z,36.00
2023-04-27T23:53:52.011Z,37.00
